sensor_id;sensor_type;location;lat;lon;timestamp;P1;durP1;ratioP1;P2;durP2;ratioP2
47259;SDS011;32999;52.412;4.890;2022-07-01T00:03:09;4.20;;;1.48;;
47259;SDS011;32999;52.412;4.890;2022-07-01T00:08:10;3.17;;;1.52;;
47259;SDS011;32999;52.412;4.890;2022-07-01T00:13:14;3.75;;;1.33;;
47259;SDS011;32999;52.412;4.890;2022-07-01T00:18:15;2.92;;;2.35;;
47259;SDS011;32999;52.412;4.890;2022-07-01T00:23:17;5.60;;;3.63;;
47259;SDS011;32999;52.412;4.890;2022-07-01T00:28:20;10.32;;;4.80;;
47259;SDS011;32999;52.412;4.890;2022-07-01T00:33:22;8.27;;;6.93;;
47259;SDS011;32999;52.412;4.890;2022-07-01T00:38:23;13.13;;;6.75;;
47259;SDS011;32999;52.412;4.890;2022-07-01T00:43:26;10.07;;;7.78;;
47259;SDS011;32999;52.412;4.890;2022-07-01T00:48:28;15.98;;;12.30;;
47259;SDS011;32999;52.412;4.890;2022-07-01T00:53:31;23.42;;;15.38;;
47259;SDS011;32999;52.412;4.890;2022-07-01T00:58:34;21.65;;;15.57;;
47259;SDS011;32999;52.412;4.890;2022-07-01T01:03:37;26.93;;;17.43;;
47259;SDS011;32999;52.412;4.890;2022-07-01T01:08:39;28.42;;;19.13;;
47259;SDS011;32999;52.412;4.890;2022-07-01T01:13:42;29.70;;;19.48;;
47259;SDS011;32999;52.412;4.890;2022-07-01T01:18:44;29.07;;;22.20;;
47259;SDS011;32999;52.412;4.890;2022-07-01T01:23:48;29.20;;;21.70;;
47259;SDS011;32999;52.412;4.890;2022-07-01T01:28:49;32.58;;;23.60;;
47259;SDS011;32999;52.412;4.890;2022-07-01T01:33:51;36.40;;;25.50;;
47259;SDS011;32999;52.412;4.890;2022-07-01T01:38:54;36.53;;;23.85;;
47259;SDS011;32999;52.412;4.890;2022-07-01T01:43:57;34.22;;;23.95;;
47259;SDS011;32999;52.412;4.890;2022-07-01T01:48:58;39.50;;;24.95;;
47259;SDS011;32999;52.412;4.890;2022-07-01T01:54:02;38.28;;;25.58;;
47259;SDS011;32999;52.412;4.890;2022-07-01T01:59:04;34.10;;;26.03;;
47259;SDS011;32999;52.412;4.890;2022-07-01T02:04:06;37.65;;;26.30;;
47259;SDS011;32999;52.412;4.890;2022-07-01T02:09:09;35.47;;;25.45;;
47259;SDS011;32999;52.412;4.890;2022-07-01T02:14:11;35.17;;;26.23;;
47259;SDS011;32999;52.412;4.890;2022-07-01T02:19:12;36.20;;;24.73;;
47259;SDS011;32999;52.412;4.890;2022-07-01T02:24:15;40.47;;;25.35;;
47259;SDS011;32999;52.412;4.890;2022-07-01T02:29:17;35.25;;;25.40;;
47259;SDS011;32999;52.412;4.890;2022-07-01T02:34:19;41.38;;;26.95;;
47259;SDS011;32999;52.412;4.890;2022-07-01T02:39:22;38.47;;;24.80;;
47259;SDS011;32999;52.412;4.890;2022-07-01T02:44:23;36.53;;;25.13;;
47259;SDS011;32999;52.412;4.890;2022-07-01T02:49:25;38.08;;;24.33;;
47259;SDS011;32999;52.412;4.890;2022-07-01T02:54:28;35.55;;;23.33;;
47259;SDS011;32999;52.412;4.890;2022-07-01T02:59:30;33.90;;;22.48;;
47259;SDS011;32999;52.412;4.890;2022-07-01T03:04:31;30.85;;;21.15;;
47259;SDS011;32999;52.412;4.890;2022-07-01T03:09:35;29.98;;;20.90;;
47259;SDS011;32999;52.412;4.890;2022-07-01T03:14:39;37.63;;;21.40;;
47259;SDS011;32999;52.412;4.890;2022-07-01T03:19:41;30.63;;;20.65;;
47259;SDS011;32999;52.412;4.890;2022-07-01T03:24:44;33.45;;;20.67;;
47259;SDS011;32999;52.412;4.890;2022-07-01T03:29:46;34.70;;;20.30;;
47259;SDS011;32999;52.412;4.890;2022-07-01T03:34:48;30.90;;;19.60;;
47259;SDS011;32999;52.412;4.890;2022-07-01T03:39:52;28.23;;;17.45;;
47259;SDS011;32999;52.412;4.890;2022-07-01T03:44:54;28.55;;;17.83;;
47259;SDS011;32999;52.412;4.890;2022-07-01T03:49:55;25.65;;;15.30;;
47259;SDS011;32999;52.412;4.890;2022-07-01T03:54:58;22.48;;;15.68;;
47259;SDS011;32999;52.412;4.890;2022-07-01T04:00:01;19.65;;;14.57;;
47259;SDS011;32999;52.412;4.890;2022-07-01T04:05:03;25.55;;;15.57;;
47259;SDS011;32999;52.412;4.890;2022-07-01T04:10:07;25.58;;;14.90;;
47259;SDS011;32999;52.412;4.890;2022-07-01T04:15:09;26.27;;;14.50;;
47259;SDS011;32999;52.412;4.890;2022-07-01T04:20:12;20.45;;;12.63;;
47259;SDS011;32999;52.412;4.890;2022-07-01T04:25:15;22.52;;;13.00;;
47259;SDS011;32999;52.412;4.890;2022-07-01T04:30:17;19.40;;;12.98;;
47259;SDS011;32999;52.412;4.890;2022-07-01T04:35:18;17.88;;;11.27;;
47259;SDS011;32999;52.412;4.890;2022-07-01T04:40:21;23.67;;;11.32;;
47259;SDS011;32999;52.412;4.890;2022-07-01T04:45:23;15.60;;;10.00;;
47259;SDS011;32999;52.412;4.890;2022-07-01T04:50:25;17.48;;;9.95;;
47259;SDS011;32999;52.412;4.890;2022-07-01T04:55:28;17.63;;;9.13;;
47259;SDS011;32999;52.412;4.890;2022-07-01T05:00:29;13.15;;;8.50;;
47259;SDS011;32999;52.412;4.890;2022-07-01T05:05:31;12.85;;;8.25;;
47259;SDS011;32999;52.412;4.890;2022-07-01T05:10:34;17.27;;;9.35;;
47259;SDS011;32999;52.412;4.890;2022-07-01T05:15:35;14.85;;;7.53;;
47259;SDS011;32999;52.412;4.890;2022-07-01T05:20:37;13.25;;;7.57;;
47259;SDS011;32999;52.412;4.890;2022-07-01T05:25:58;11.52;;;8.50;;
47259;SDS011;32999;52.412;4.890;2022-07-01T05:31:00;12.63;;;7.72;;
47259;SDS011;32999;52.412;4.890;2022-07-01T05:36:01;14.75;;;7.43;;
47259;SDS011;32999;52.412;4.890;2022-07-01T05:41:04;13.95;;;7.70;;
47259;SDS011;32999;52.412;4.890;2022-07-01T05:46:06;14.93;;;8.02;;
47259;SDS011;32999;52.412;4.890;2022-07-01T05:51:08;14.48;;;7.15;;
47259;SDS011;32999;52.412;4.890;2022-07-01T05:56:11;10.10;;;5.28;;
47259;SDS011;32999;52.412;4.890;2022-07-01T06:01:13;9.60;;;5.40;;
47259;SDS011;32999;52.412;4.890;2022-07-01T06:06:14;13.13;;;6.13;;
47259;SDS011;32999;52.412;4.890;2022-07-01T06:11:19;17.57;;;5.90;;
47259;SDS011;32999;52.412;4.890;2022-07-01T06:16:21;17.13;;;6.43;;
47259;SDS011;32999;52.412;4.890;2022-07-01T06:21:23;12.60;;;5.43;;
47259;SDS011;32999;52.412;4.890;2022-07-01T06:26:26;14.95;;;4.75;;
47259;SDS011;32999;52.412;4.890;2022-07-01T06:31:27;9.95;;;4.55;;
47259;SDS011;32999;52.412;4.890;2022-07-01T06:36:29;17.73;;;5.38;;
47259;SDS011;32999;52.412;4.890;2022-07-01T06:41:32;12.25;;;4.60;;
47259;SDS011;32999;52.412;4.890;2022-07-01T06:46:33;12.75;;;4.30;;
47259;SDS011;32999;52.412;4.890;2022-07-01T06:51:35;12.00;;;3.25;;
47259;SDS011;32999;52.412;4.890;2022-07-01T06:56:38;9.77;;;3.92;;
47259;SDS011;32999;52.412;4.890;2022-07-01T07:01:40;10.18;;;2.65;;
47259;SDS011;32999;52.412;4.890;2022-07-01T07:06:42;11.82;;;3.00;;
47259;SDS011;32999;52.412;4.890;2022-07-01T07:11:45;6.82;;;2.63;;
47259;SDS011;32999;52.412;4.890;2022-07-01T07:16:46;14.70;;;2.97;;
47259;SDS011;32999;52.412;4.890;2022-07-01T07:21:48;14.02;;;3.42;;
47259;SDS011;32999;52.412;4.890;2022-07-01T07:26:51;12.07;;;2.72;;
47259;SDS011;32999;52.412;4.890;2022-07-01T07:31:53;7.40;;;2.05;;
47259;SDS011;32999;52.412;4.890;2022-07-01T07:36:55;10.27;;;2.30;;
47259;SDS011;32999;52.412;4.890;2022-07-01T07:41:58;7.03;;;1.55;;
47259;SDS011;32999;52.412;4.890;2022-07-01T07:47:00;8.47;;;1.57;;
47259;SDS011;32999;52.412;4.890;2022-07-01T07:52:01;9.55;;;1.88;;
47259;SDS011;32999;52.412;4.890;2022-07-01T07:57:05;8.88;;;1.83;;
47259;SDS011;32999;52.412;4.890;2022-07-01T08:02:06;8.60;;;2.17;;
47259;SDS011;32999;52.412;4.890;2022-07-01T08:07:08;8.25;;;2.28;;
47259;SDS011;32999;52.412;4.890;2022-07-01T08:12:11;13.35;;;2.72;;
47259;SDS011;32999;52.412;4.890;2022-07-01T08:17:13;14.10;;;3.30;;
47259;SDS011;32999;52.412;4.890;2022-07-01T08:22:15;13.80;;;3.85;;
47259;SDS011;32999;52.412;4.890;2022-07-01T08:27:18;17.65;;;5.20;;
47259;SDS011;32999;52.412;4.890;2022-07-01T08:32:20;5.53;;;1.95;;
47259;SDS011;32999;52.412;4.890;2022-07-01T08:37:22;5.35;;;1.90;;
47259;SDS011;32999;52.412;4.890;2022-07-01T08:42:25;5.03;;;1.13;;
47259;SDS011;32999;52.412;4.890;2022-07-01T08:47:27;10.10;;;2.15;;
47259;SDS011;32999;52.412;4.890;2022-07-01T08:52:29;7.78;;;2.60;;
47259;SDS011;32999;52.412;4.890;2022-07-01T08:57:32;10.25;;;2.10;;
47259;SDS011;32999;52.412;4.890;2022-07-01T09:02:48;13.25;;;1.70;;
47259;SDS011;32999;52.412;4.890;2022-07-01T09:07:55;3.67;;;0.80;;
47259;SDS011;32999;52.412;4.890;2022-07-01T09:13:01;5.13;;;1.10;;
47259;SDS011;32999;52.412;4.890;2022-07-01T09:18:09;2.53;;;1.10;;
47259;SDS011;32999;52.412;4.890;2022-07-01T09:23:13;9.65;;;1.30;;
47259;SDS011;32999;52.412;4.890;2022-07-01T09:28:18;5.72;;;1.25;;
47259;SDS011;32999;52.412;4.890;2022-07-01T09:33:21;5.32;;;1.55;;
47259;SDS011;32999;52.412;4.890;2022-07-01T09:38:24;4.05;;;1.13;;
47259;SDS011;32999;52.412;4.890;2022-07-01T09:43:29;2.90;;;1.02;;
47259;SDS011;32999;52.412;4.890;2022-07-01T09:48:42;5.38;;;1.13;;
47259;SDS011;32999;52.412;4.890;2022-07-01T09:53:45;8.95;;;2.28;;
47259;SDS011;32999;52.412;4.890;2022-07-01T09:58:48;10.02;;;2.30;;
47259;SDS011;32999;52.412;4.890;2022-07-01T10:03:49;10.93;;;1.55;;
47259;SDS011;32999;52.412;4.890;2022-07-01T10:08:56;5.90;;;1.67;;
47259;SDS011;32999;52.412;4.890;2022-07-01T10:14:10;11.75;;;2.28;;
47259;SDS011;32999;52.412;4.890;2022-07-01T10:19:24;9.65;;;1.58;;
47259;SDS011;32999;52.412;4.890;2022-07-01T10:24:27;7.93;;;1.73;;
47259;SDS011;32999;52.412;4.890;2022-07-01T10:29:31;3.88;;;1.15;;
47259;SDS011;32999;52.412;4.890;2022-07-01T10:34:35;7.32;;;1.70;;
47259;SDS011;32999;52.412;4.890;2022-07-01T10:39:54;6.68;;;1.30;;
47259;SDS011;32999;52.412;4.890;2022-07-01T10:45:01;3.45;;;1.10;;
47259;SDS011;32999;52.412;4.890;2022-07-01T10:50:08;6.30;;;1.58;;
47259;SDS011;32999;52.412;4.890;2022-07-01T10:55:11;7.18;;;1.60;;
47259;SDS011;32999;52.412;4.890;2022-07-01T11:00:28;5.78;;;1.58;;
47259;SDS011;32999;52.412;4.890;2022-07-01T11:05:34;5.65;;;1.40;;
47259;SDS011;32999;52.412;4.890;2022-07-01T11:10:37;5.50;;;1.50;;
47259;SDS011;32999;52.412;4.890;2022-07-01T11:15:41;6.93;;;1.45;;
47259;SDS011;32999;52.412;4.890;2022-07-01T11:20:45;2.03;;;0.80;;
47259;SDS011;32999;52.412;4.890;2022-07-01T11:25:47;7.75;;;1.95;;
47259;SDS011;32999;52.412;4.890;2022-07-01T11:30:50;5.15;;;1.08;;
47259;SDS011;32999;52.412;4.890;2022-07-01T11:35:59;3.65;;;1.10;;
47259;SDS011;32999;52.412;4.890;2022-07-01T11:41:19;4.63;;;1.40;;
47259;SDS011;32999;52.412;4.890;2022-07-01T11:46:24;5.78;;;1.30;;
47259;SDS011;32999;52.412;4.890;2022-07-01T11:51:25;7.20;;;1.77;;
47259;SDS011;32999;52.412;4.890;2022-07-01T11:56:28;5.43;;;1.60;;
47259;SDS011;32999;52.412;4.890;2022-07-01T12:01:32;6.30;;;1.20;;
47259;SDS011;32999;52.412;4.890;2022-07-01T12:06:35;9.52;;;1.45;;
47259;SDS011;32999;52.412;4.890;2022-07-01T12:11:40;8.25;;;1.50;;
47259;SDS011;32999;52.412;4.890;2022-07-01T12:16:50;6.88;;;1.90;;
47259;SDS011;32999;52.412;4.890;2022-07-01T12:21:53;5.03;;;1.35;;
47259;SDS011;32999;52.412;4.890;2022-07-01T12:27:01;5.03;;;1.38;;
47259;SDS011;32999;52.412;4.890;2022-07-01T12:32:06;5.10;;;1.20;;
47259;SDS011;32999;52.412;4.890;2022-07-01T12:42:25;4.43;;;1.10;;
47259;SDS011;32999;52.412;4.890;2022-07-01T12:47:30;8.65;;;1.65;;
47259;SDS011;32999;52.412;4.890;2022-07-01T12:52:33;7.57;;;1.58;;
47259;SDS011;32999;52.412;4.890;2022-07-01T12:57:35;7.53;;;2.45;;
47259;SDS011;32999;52.412;4.890;2022-07-01T13:02:37;4.70;;;1.42;;
47259;SDS011;32999;52.412;4.890;2022-07-01T13:07:39;6.70;;;1.23;;
47259;SDS011;32999;52.412;4.890;2022-07-01T13:12:41;6.70;;;1.55;;
47259;SDS011;32999;52.412;4.890;2022-07-01T13:17:45;7.13;;;1.53;;
47259;SDS011;32999;52.412;4.890;2022-07-01T13:22:49;4.05;;;1.27;;
47259;SDS011;32999;52.412;4.890;2022-07-01T13:32:56;5.88;;;1.35;;
47259;SDS011;32999;52.412;4.890;2022-07-01T13:37:59;6.70;;;1.55;;
47259;SDS011;32999;52.412;4.890;2022-07-01T13:43:01;6.47;;;1.10;;
47259;SDS011;32999;52.412;4.890;2022-07-01T13:48:06;8.77;;;1.65;;
47259;SDS011;32999;52.412;4.890;2022-07-01T13:53:08;6.63;;;1.27;;
47259;SDS011;32999;52.412;4.890;2022-07-01T13:58:09;8.75;;;1.35;;
47259;SDS011;32999;52.412;4.890;2022-07-01T14:08:16;4.90;;;1.30;;
47259;SDS011;32999;52.412;4.890;2022-07-01T14:13:19;5.95;;;1.08;;
47259;SDS011;32999;52.412;4.890;2022-07-01T14:18:25;4.32;;;1.05;;
47259;SDS011;32999;52.412;4.890;2022-07-01T14:23:26;3.53;;;0.70;;
47259;SDS011;32999;52.412;4.890;2022-07-01T14:28:31;8.32;;;1.20;;
47259;SDS011;32999;52.412;4.890;2022-07-01T14:33:35;1.77;;;0.50;;
47259;SDS011;32999;52.412;4.890;2022-07-01T14:38:39;3.80;;;1.10;;
47259;SDS011;32999;52.412;4.890;2022-07-01T14:43:40;1.60;;;0.55;;
47259;SDS011;32999;52.412;4.890;2022-07-01T14:48:46;6.50;;;1.55;;
47259;SDS011;32999;52.412;4.890;2022-07-01T14:53:48;4.50;;;1.10;;
47259;SDS011;32999;52.412;4.890;2022-07-01T14:58:50;4.72;;;1.10;;
47259;SDS011;32999;52.412;4.890;2022-07-01T15:03:54;8.95;;;1.50;;
47259;SDS011;32999;52.412;4.890;2022-07-01T15:08:55;5.97;;;1.27;;
47259;SDS011;32999;52.412;4.890;2022-07-01T15:13:59;3.83;;;1.10;;
47259;SDS011;32999;52.412;4.890;2022-07-01T15:19:03;4.57;;;1.02;;
47259;SDS011;32999;52.412;4.890;2022-07-01T15:24:05;6.85;;;1.48;;
47259;SDS011;32999;52.412;4.890;2022-07-01T15:29:09;3.08;;;0.80;;
47259;SDS011;32999;52.412;4.890;2022-07-01T15:34:12;2.28;;;0.70;;
47259;SDS011;32999;52.412;4.890;2022-07-01T15:39:16;7.97;;;2.15;;
47259;SDS011;32999;52.412;4.890;2022-07-01T15:44:17;5.53;;;1.65;;
47259;SDS011;32999;52.412;4.890;2022-07-01T15:49:22;4.32;;;1.38;;
47259;SDS011;32999;52.412;4.890;2022-07-01T15:54:24;3.63;;;1.40;;
47259;SDS011;32999;52.412;4.890;2022-07-01T15:59:26;6.13;;;2.90;;
47259;SDS011;32999;52.412;4.890;2022-07-01T16:04:37;4.93;;;0.70;;
47259;SDS011;32999;52.412;4.890;2022-07-01T16:10:03;4.07;;;0.85;;
47259;SDS011;32999;52.412;4.890;2022-07-01T16:15:07;6.30;;;1.60;;
47259;SDS011;32999;52.412;4.890;2022-07-01T16:20:13;4.70;;;1.05;;
47259;SDS011;32999;52.412;4.890;2022-07-01T16:25:17;8.70;;;2.78;;
47259;SDS011;32999;52.412;4.890;2022-07-01T16:30:19;4.45;;;1.60;;
47259;SDS011;32999;52.412;4.890;2022-07-01T16:35:22;4.05;;;1.10;;
47259;SDS011;32999;52.412;4.890;2022-07-01T16:40:26;1.75;;;0.47;;
47259;SDS011;32999;52.412;4.890;2022-07-01T16:45:30;2.88;;;0.80;;
47259;SDS011;32999;52.412;4.890;2022-07-01T16:50:40;2.55;;;0.50;;
47259;SDS011;32999;52.412;4.890;2022-07-01T16:55:43;5.00;;;0.75;;
47259;SDS011;32999;52.412;4.890;2022-07-01T17:00:46;2.13;;;0.50;;
47259;SDS011;32999;52.412;4.890;2022-07-01T17:05:49;4.95;;;0.80;;
47259;SDS011;32999;52.412;4.890;2022-07-01T17:10:51;3.87;;;1.10;;
47259;SDS011;32999;52.412;4.890;2022-07-01T17:15:55;4.13;;;0.80;;
47259;SDS011;32999;52.412;4.890;2022-07-01T17:21:00;0.90;;;0.47;;
47259;SDS011;32999;52.412;4.890;2022-07-01T17:26:05;4.93;;;1.40;;
47259;SDS011;32999;52.412;4.890;2022-07-01T17:31:22;11.10;;;3.15;;
47259;SDS011;32999;52.412;4.890;2022-07-01T17:36:28;8.23;;;2.40;;
47259;SDS011;32999;52.412;4.890;2022-07-01T17:41:32;6.65;;;1.75;;
47259;SDS011;32999;52.412;4.890;2022-07-01T17:46:36;7.20;;;2.40;;
47259;SDS011;32999;52.412;4.890;2022-07-01T17:51:41;13.23;;;3.40;;
47259;SDS011;32999;52.412;4.890;2022-07-01T18:01:45;5.88;;;1.63;;
47259;SDS011;32999;52.412;4.890;2022-07-01T18:06:49;6.95;;;1.70;;
47259;SDS011;32999;52.412;4.890;2022-07-01T18:11:53;8.83;;;2.00;;
47259;SDS011;32999;52.412;4.890;2022-07-01T18:17:02;7.95;;;2.22;;
47259;SDS011;32999;52.412;4.890;2022-07-01T18:22:08;9.82;;;4.65;;
47259;SDS011;32999;52.412;4.890;2022-07-01T18:27:14;15.13;;;4.27;;
47259;SDS011;32999;52.412;4.890;2022-07-01T18:32:19;15.07;;;4.07;;
47259;SDS011;32999;52.412;4.890;2022-07-01T18:37:24;15.43;;;3.60;;
47259;SDS011;32999;52.412;4.890;2022-07-01T18:42:32;8.70;;;2.70;;
47259;SDS011;32999;52.412;4.890;2022-07-01T18:47:34;15.82;;;4.40;;
47259;SDS011;32999;52.412;4.890;2022-07-01T18:52:38;14.15;;;4.13;;
47259;SDS011;32999;52.412;4.890;2022-07-01T18:57:40;7.18;;;2.45;;
47259;SDS011;32999;52.412;4.890;2022-07-01T19:02:43;7.93;;;2.20;;
47259;SDS011;32999;52.412;4.890;2022-07-01T19:07:47;13.13;;;2.97;;
47259;SDS011;32999;52.412;4.890;2022-07-01T19:12:49;13.23;;;3.70;;
47259;SDS011;32999;52.412;4.890;2022-07-01T19:17:51;15.60;;;3.42;;
47259;SDS011;32999;52.412;4.890;2022-07-01T19:22:55;5.43;;;1.45;;
47259;SDS011;32999;52.412;4.890;2022-07-01T19:27:57;14.90;;;4.28;;
47259;SDS011;32999;52.412;4.890;2022-07-01T19:32:58;11.73;;;2.25;;
47259;SDS011;32999;52.412;4.890;2022-07-01T19:38:02;13.13;;;3.58;;
47259;SDS011;32999;52.412;4.890;2022-07-01T19:43:03;18.30;;;3.60;;
47259;SDS011;32999;52.412;4.890;2022-07-01T19:48:07;10.85;;;2.45;;
47259;SDS011;32999;52.412;4.890;2022-07-01T19:53:11;12.65;;;3.42;;
47259;SDS011;32999;52.412;4.890;2022-07-01T19:58:13;7.47;;;1.95;;
47259;SDS011;32999;52.412;4.890;2022-07-01T20:03:16;22.27;;;5.30;;
47259;SDS011;32999;52.412;4.890;2022-07-01T20:08:19;9.80;;;2.38;;
47259;SDS011;32999;52.412;4.890;2022-07-01T20:13:24;8.38;;;1.98;;
47259;SDS011;32999;52.412;4.890;2022-07-01T20:18:26;4.90;;;1.93;;
47259;SDS011;32999;52.412;4.890;2022-07-01T20:23:32;8.82;;;1.40;;
47259;SDS011;32999;52.412;4.890;2022-07-01T20:28:34;3.83;;;1.52;;
47259;SDS011;32999;52.412;4.890;2022-07-01T20:33:36;5.20;;;1.50;;
47259;SDS011;32999;52.412;4.890;2022-07-01T20:38:39;4.20;;;1.15;;
47259;SDS011;32999;52.412;4.890;2022-07-01T20:43:40;5.55;;;1.60;;
47259;SDS011;32999;52.412;4.890;2022-07-01T20:48:42;7.50;;;1.30;;
47259;SDS011;32999;52.412;4.890;2022-07-01T20:53:46;5.07;;;1.58;;
47259;SDS011;32999;52.412;4.890;2022-07-01T20:58:47;7.38;;;1.67;;
47259;SDS011;32999;52.412;4.890;2022-07-01T21:03:50;4.95;;;1.20;;
47259;SDS011;32999;52.412;4.890;2022-07-01T21:08:54;6.00;;;1.60;;
47259;SDS011;32999;52.412;4.890;2022-07-01T21:13:57;8.10;;;1.40;;
47259;SDS011;32999;52.412;4.890;2022-07-01T21:18:59;5.17;;;0.90;;
47259;SDS011;32999;52.412;4.890;2022-07-01T21:24:02;7.18;;;1.58;;
47259;SDS011;32999;52.412;4.890;2022-07-01T21:29:09;4.18;;;1.00;;
47259;SDS011;32999;52.412;4.890;2022-07-01T21:34:11;6.25;;;1.42;;
47259;SDS011;32999;52.412;4.890;2022-07-01T21:39:14;5.60;;;1.38;;
47259;SDS011;32999;52.412;4.890;2022-07-01T21:44:17;4.53;;;1.38;;
47259;SDS011;32999;52.412;4.890;2022-07-01T21:49:19;7.47;;;1.05;;
47259;SDS011;32999;52.412;4.890;2022-07-01T21:54:25;7.63;;;1.42;;
47259;SDS011;32999;52.412;4.890;2022-07-01T21:59:31;9.85;;;1.27;;
47259;SDS011;32999;52.412;4.890;2022-07-01T22:04:34;6.88;;;1.42;;
47259;SDS011;32999;52.412;4.890;2022-07-01T22:09:38;3.40;;;1.05;;
47259;SDS011;32999;52.412;4.890;2022-07-01T22:14:40;6.55;;;1.50;;
47259;SDS011;32999;52.412;4.890;2022-07-01T22:19:45;5.10;;;1.30;;
47259;SDS011;32999;52.412;4.890;2022-07-01T22:24:53;9.05;;;1.70;;
47259;SDS011;32999;52.412;4.890;2022-07-01T22:29:57;4.35;;;1.30;;
47259;SDS011;32999;52.412;4.890;2022-07-01T22:35:00;8.97;;;1.97;;
47259;SDS011;32999;52.412;4.890;2022-07-01T22:40:04;8.35;;;1.73;;
47259;SDS011;32999;52.412;4.890;2022-07-01T22:45:08;7.32;;;1.77;;
47259;SDS011;32999;52.412;4.890;2022-07-01T22:50:15;7.25;;;1.95;;
47259;SDS011;32999;52.412;4.890;2022-07-01T22:55:29;7.22;;;2.03;;
47259;SDS011;32999;52.412;4.890;2022-07-01T23:00:37;8.23;;;1.58;;
47259;SDS011;32999;52.412;4.890;2022-07-01T23:05:40;11.93;;;2.05;;
47259;SDS011;32999;52.412;4.890;2022-07-01T23:10:50;6.60;;;1.73;;
47259;SDS011;32999;52.412;4.890;2022-07-01T23:15:55;9.27;;;1.83;;
47259;SDS011;32999;52.412;4.890;2022-07-01T23:21:16;6.13;;;1.63;;
47259;SDS011;32999;52.412;4.890;2022-07-01T23:26:20;6.68;;;1.90;;
47259;SDS011;32999;52.412;4.890;2022-07-01T23:31:26;5.95;;;1.70;;
47259;SDS011;32999;52.412;4.890;2022-07-01T23:36:30;6.75;;;2.25;;
47259;SDS011;32999;52.412;4.890;2022-07-01T23:41:33;6.70;;;2.08;;
47259;SDS011;32999;52.412;4.890;2022-07-01T23:46:35;5.68;;;1.70;;
47259;SDS011;32999;52.412;4.890;2022-07-01T23:51:37;6.13;;;1.60;;
47259;SDS011;32999;52.412;4.890;2022-07-01T23:56:40;8.13;;;1.67;;
